CheckWX is a tool to help pilots better visualize weather data.  It is not intended as a substitute for an official pre-flight weather briefing.

06:46:28 UTC

ENVD METAR
Vadsø Airport
Vadsø, Norway
Current

26 mins ago

ENVD 210620Z 04010KT 9999 FEW012 BKN019 03/M00 Q1023
Observed
May-21 @ 06:20 UTC
Wind
  • 040° at 10 KTS
Visibility
10,000+ meters
Flight Rules
MVFR
Cloud Levels
  • Few at 1,200' AGL
  • Broken at 1,900' AGL
Temperature
C / 37°F
Dewpoint
C / 32°F
Humidity
81%
Altimeter
30.21" Hg
Pressure
1022.92 hPa
Previous

56 mins ago

ENVD 210550Z 05012KT 9999 FEW011 BKN018 03/00 Q1023
Observed
May-21 @ 05:50 UTC
Wind
  • 050° at 12 KTS
Visibility
10,000+ meters
Flight Rules
MVFR
Cloud Levels
  • Few at 1,100' AGL
  • Broken at 1,800' AGL
Temperature
C / 37°F
Dewpoint
C / 32°F
Humidity
81%
Altimeter
30.21" Hg
Pressure
1022.92 hPa
Previous

2 hours ago

ENVD 210450Z 04012KT 9999 BKN016 02/00 Q1023
Observed
May-21 @ 04:50 UTC
Wind
  • 040° at 12 KTS
Visibility
10,000+ meters
Flight Rules
MVFR
Cloud Levels
  • Broken at 1,600' AGL
Temperature
C / 36°F
Dewpoint
C / 32°F
Humidity
87%
Altimeter
30.21" Hg
Pressure
1022.92 hPa